Time;durP1;ratioP1;P1;durP2;ratioP2;P2;SDS_P1;SDS_P2;PMS_P1;PMS_P2;Temp;Humidity;BMP_temperature;BMP_pressure;BME280_temperature;BME280_humidity;BME280_pressure;Samples;Min_cycle;Max_cycle;Signal;HPM_P1;HPM_P2
2021/12/27 00:02:01;;;;;;;;;;;11.20;99.90;;;;;;5015701;28;20438;-75
2021/12/27 00:04:27;;;;;;;;;;;11.20;99.90;;;;;;5017783;28;19909;-75
2021/12/27 00:06:52;;;;;;;;;;;11.20;99.90;;;;;;5017240;28;19949;-75
2021/12/27 00:09:18;;;;;;;;;;;11.20;99.90;;;;;;5014934;28;19941;-75
2021/12/27 00:11:44;;;;;;;;;;;11.20;99.90;;;;;;5022248;28;19917;-74
2021/12/27 00:14:10;;;;;;;;;;;11.20;99.90;;;;;;5029145;28;19913;-74
2021/12/27 00:16:36;;;;;;;;;;;11.20;99.90;;;;;;5014206;28;20361;-74
2021/12/27 00:19:01;;;;;;;;;;;11.20;99.90;;;;;;5021040;28;20000;-74
2021/12/27 00:21:27;;;;;;;;;;;11.20;99.90;;;;;;5018218;28;19914;-74
2021/12/27 00:23:53;;;;;;;;;;;11.20;99.90;;;;;;5021655;28;19926;-74
2021/12/27 00:26:18;;;;;;;;;;;11.20;99.90;;;;;;5017883;28;19909;-75
2021/12/27 00:28:44;;;;;;;;;;;11.20;99.90;;;;;;5019177;28;19910;-75
2021/12/27 00:31:09;;;;;;;;;;;11.20;99.90;;;;;;5017462;28;20383;-75
2021/12/27 00:33:35;;;;;;;;;;;11.20;99.90;;;;;;5020697;28;19909;-75
2021/12/27 00:36:01;;;;;;;;;;;11.20;99.90;;;;;;5017124;28;20349;-75
2021/12/27 00:38:26;;;;;;;;;;;11.20;99.90;;;;;;5030860;28;20357;-74
2021/12/27 00:40:52;;;;;;;;;;;11.20;99.90;;;;;;5022879;28;19940;-74
2021/12/27 00:43:18;;;;;;;;;;;11.20;99.90;;;;;;5017802;28;20428;-74
2021/12/27 00:45:44;;;;;;;;;;;11.20;99.90;;;;;;5018837;28;19933;-75
2021/12/27 00:48:10;;;;;;;;;;;11.20;99.90;;;;;;5017755;28;20373;-74
2021/12/27 00:50:35;;;;;;;;;;;11.20;99.90;;;;;;5019938;28;19917;-75
2021/12/27 00:53:01;;;;;;;;;;;11.20;99.90;;;;;;5022739;28;20391;-74
2021/12/27 00:55:27;;;;;;;;;;;11.20;99.90;;;;;;5018242;28;19910;-75
2021/12/27 00:57:53;;;;;;;;;;;11.20;99.90;;;;;;5017307;28;20020;-75
2021/12/27 01:00:20;;;;;;;;;;;11.20;99.90;;;;;;5018540;28;19910;-75
2021/12/27 01:02:46;;;;;;;;;;;11.20;99.90;;;;;;5021705;28;19963;-75
2021/12/27 01:05:12;;;;;;;;;;;11.20;99.90;;;;;;5026942;28;19916;-74
2021/12/27 01:07:38;;;;;;;;;;;11.20;99.90;;;;;;5021215;28;19918;-75
2021/12/27 01:10:26;;;;;;;;;;;11.20;99.90;;;;;;5017631;28;19918;-74
2021/12/27 01:13:16;;;;;;;;;;;11.20;99.90;;;;;;5017009;28;19945;-74
2021/12/27 01:16:10;;;;;;;;;;;11.20;99.90;;;;;;5013195;28;19916;-74
2021/12/27 01:18:40;;;;;;;;;;;11.10;99.90;;;;;;5007944;28;20388;-75
2021/12/27 01:21:05;;;;;;;;;;;11.20;99.90;;;;;;5022936;28;20368;-74
2021/12/27 01:23:31;;;;;;;;;;;11.20;99.90;;;;;;5025249;28;19944;-75
2021/12/27 01:25:57;;;;;;;;;;;11.20;99.90;;;;;;5022623;28;19909;-75
2021/12/27 01:28:22;;;;;;;;;;;11.20;99.90;;;;;;5020061;28;19920;-74
2021/12/27 01:30:49;;;;;;;;;;;11.10;99.90;;;;;;5025542;28;19944;-75
2021/12/27 01:33:17;;;;;;;;;;;11.10;99.90;;;;;;5026412;28;19910;-75
2021/12/27 01:35:43;;;;;;;;;;;11.10;99.90;;;;;;5019316;28;19917;-75
2021/12/27 01:38:11;;;;;;;;;;;11.10;99.90;;;;;;5024293;28;20365;-74
2021/12/27 01:40:37;;;;;;;;;;;11.00;99.90;;;;;;5027831;28;19964;-75
2021/12/27 01:43:03;;;;;;;;;;;11.10;99.90;;;;;;5020428;28;19925;-75
2021/12/27 01:45:29;;;;;;;;;;;11.00;99.90;;;;;;5026753;28;19935;-75
2021/12/27 01:47:54;;;;;;;;;;;11.10;99.90;;;;;;5040897;28;19909;-75
2021/12/27 01:50:20;;;;;;;;;;;11.00;99.90;;;;;;5033997;28;19909;-75
2021/12/27 01:52:46;;;;;;;;;;;11.00;99.90;;;;;;5020911;28;19975;-74
2021/12/27 01:55:11;;;;;;;;;;;11.00;99.90;;;;;;5022841;28;19909;-75
2021/12/27 01:57:37;;;;;;;;;;;11.00;99.90;;;;;;5038499;28;19909;-74
2021/12/27 02:00:04;;;;;;;;;;;11.00;99.90;;;;;;5038052;28;19935;-74
2021/12/27 02:02:31;;;;;;;;;;;11.00;99.90;;;;;;5020762;28;20400;-75
2021/12/27 02:04:56;;;;;;;;;;;11.00;99.90;;;;;;5019429;28;19917;-75
2021/12/27 02:07:22;;;;;;;;;;;11.00;99.90;;;;;;5024878;28;19948;-75
2021/12/27 02:09:59;;;;;;;;;;;11.00;99.90;;;;;;5038583;28;19916;-74
2021/12/27 02:12:25;;;;;;;;;;;11.00;99.90;;;;;;5039780;28;19909;-74
2021/12/27 02:14:50;;;;;;;;;;;11.00;99.90;;;;;;5011808;28;19916;-74
2021/12/27 02:17:19;;;;;;;;;;;11.00;99.90;;;;;;5029928;28;20004;-74
2021/12/27 02:19:48;;;;;;;;;;;11.00;99.90;;;;;;5030411;28;19925;-74
2021/12/27 02:22:14;;;;;;;;;;;11.00;99.90;;;;;;5027547;28;19940;-74
2021/12/27 02:24:42;;;;;;;;;;;11.00;99.90;;;;;;5021331;28;19922;-74
2021/12/27 02:27:11;;;;;;;;;;;11.00;99.90;;;;;;5022325;28;19913;-74
2021/12/27 02:29:37;;;;;;;;;;;11.00;99.90;;;;;;5022597;28;20444;-74
2021/12/27 02:32:03;;;;;;;;;;;11.00;99.90;;;;;;5030481;28;19944;-74
2021/12/27 02:34:28;;;;;;;;;;;11.00;99.90;;;;;;5021089;28;20361;-74
2021/12/27 02:36:54;;;;;;;;;;;11.00;99.90;;;;;;5019180;28;19914;-74
2021/12/27 02:39:20;;;;;;;;;;;11.00;99.90;;;;;;5030731;28;19944;-74
2021/12/27 02:41:45;;;;;;;;;;;11.00;99.90;;;;;;5024095;28;19921;-75
2021/12/27 02:44:11;;;;;;;;;;;10.90;99.90;;;;;;5019685;28;20300;-74
2021/12/27 02:46:37;;;;;;;;;;;11.00;99.90;;;;;;5020219;28;19909;-74
2021/12/27 02:49:03;;;;;;;;;;;10.90;99.90;;;;;;5019792;28;19960;-75
2021/12/27 02:51:28;;;;;;;;;;;11.00;99.90;;;;;;5020054;28;19964;-74
2021/12/27 02:53:54;;;;;;;;;;;10.90;99.90;;;;;;5019679;28;19955;-75
2021/12/27 02:56:19;;;;;;;;;;;11.00;99.90;;;;;;5019956;28;19945;-75
2021/12/27 02:58:46;;;;;;;;;;;10.90;99.90;;;;;;5019422;28;19956;-74
2021/12/27 03:01:13;;;;;;;;;;;10.90;99.90;;;;;;5023073;28;20331;-74
2021/12/27 03:03:39;;;;;;;;;;;11.00;99.90;;;;;;5022675;28;19913;-74
2021/12/27 03:06:05;;;;;;;;;;;11.00;99.90;;;;;;5019501;28;19927;-74
2021/12/27 03:08:31;;;;;;;;;;;10.90;99.90;;;;;;5019402;28;19972;-74
2021/12/27 03:10:58;;;;;;;;;;;10.90;99.90;;;;;;5018209;28;20332;-74
2021/12/27 03:13:25;;;;;;;;;;;11.00;99.90;;;;;;5016115;28;19968;-74
2021/12/27 03:15:51;;;;;;;;;;;11.00;99.90;;;;;;5010353;28;19932;-75
2021/12/27 03:18:17;;;;;;;;;;;10.90;99.90;;;;;;5019396;28;20321;-75
2021/12/27 03:20:43;;;;;;;;;;;11.00;99.90;;;;;;5021965;28;19924;-75
2021/12/27 03:23:09;;;;;;;;;;;11.00;99.90;;;;;;5023330;28;20402;-74
2021/12/27 03:25:34;;;;;;;;;;;11.00;99.90;;;;;;5029390;28;19925;-74
2021/12/27 03:28:00;;;;;;;;;;;10.90;99.90;;;;;;5021037;28;19986;-75
2021/12/27 03:30:26;;;;;;;;;;;10.90;99.90;;;;;;5019461;28;19916;-75
2021/12/27 03:32:53;;;;;;;;;;;10.90;99.90;;;;;;5029009;28;20012;-75
2021/12/27 03:35:25;;;;;;;;;;;10.90;99.90;;;;;;5019138;28;19913;-75
2021/12/27 03:37:52;;;;;;;;;;;10.80;99.90;;;;;;5019595;28;19980;-75
2021/12/27 03:40:20;;;;;;;;;;;10.80;99.90;;;;;;5018968;28;19924;-74
2021/12/27 03:42:52;;;;;;;;;;;10.80;99.90;;;;;;5024955;28;19917;-75
2021/12/27 03:45:19;;;;;;;;;;;10.80;99.90;;;;;;5018932;28;19909;-75
2021/12/27 03:47:44;;;;;;;;;;;10.80;99.90;;;;;;5018798;28;19909;-75
2021/12/27 03:50:10;;;;;;;;;;;10.80;99.90;;;;;;5018780;28;19909;-75
2021/12/27 03:52:37;;;;;;;;;;;10.70;99.90;;;;;;5019106;28;19909;-75
2021/12/27 03:55:03;;;;;;;;;;;10.80;99.90;;;;;;5018549;28;19909;-75
2021/12/27 03:57:31;;;;;;;;;;;10.80;99.90;;;;;;5018763;28;19928;-75
2021/12/27 04:00:30;;;;;;;;;;;10.70;99.90;;;;;;5022049;28;19909;-75
2021/12/27 04:02:56;;;;;;;;;;;10.70;99.90;;;;;;5017254;28;19960;-75
2021/12/27 04:05:23;;;;;;;;;;;10.70;99.90;;;;;;5020429;28;19910;-75
2021/12/27 04:07:57;;;;;;;;;;;10.70;99.90;;;;;;5018449;28;19916;-75
2021/12/27 04:10:23;;;;;;;;;;;10.70;99.90;;;;;;5018356;28;20384;-75
2021/12/27 04:12:48;;;;;;;;;;;10.70;99.90;;;;;;5017858;28;19971;-75
2021/12/27 04:15:14;;;;;;;;;;;10.70;99.90;;;;;;5005575;28;19917;-75
2021/12/27 04:17:40;;;;;;;;;;;10.70;99.90;;;;;;5025885;28;19916;-75
2021/12/27 04:20:06;;;;;;;;;;;10.70;99.90;;;;;;5017956;28;19917;-75
2021/12/27 04:22:33;;;;;;;;;;;10.70;99.90;;;;;;5022126;28;19923;-75
2021/12/27 04:24:59;;;;;;;;;;;10.60;99.90;;;;;;5021401;28;19968;-75
2021/12/27 04:27:25;;;;;;;;;;;10.60;99.90;;;;;;5016523;28;19984;-75
2021/12/27 04:29:51;;;;;;;;;;;10.70;99.90;;;;;;5018214;28;20435;-75
2021/12/27 04:32:16;;;;;;;;;;;10.70;99.90;;;;;;5026719;28;19920;-75
2021/12/27 04:34:42;;;;;;;;;;;10.60;99.90;;;;;;5018333;28;19917;-75
2021/12/27 04:37:08;;;;;;;;;;;10.60;99.90;;;;;;5015559;28;19913;-75
2021/12/27 04:39:33;;;;;;;;;;;10.70;99.90;;;;;;5012612;28;19914;-75
2021/12/27 04:41:59;;;;;;;;;;;10.60;99.90;;;;;;5008817;28;20312;-75
2021/12/27 04:44:25;;;;;;;;;;;10.60;99.90;;;;;;5009191;28;19925;-75
2021/12/27 04:46:51;;;;;;;;;;;10.70;99.90;;;;;;5017941;28;20373;-75
2021/12/27 04:49:17;;;;;;;;;;;10.60;99.90;;;;;;5014827;28;19910;-75
2021/12/27 04:51:43;;;;;;;;;;;10.60;99.90;;;;;;5017811;28;20008;-75
2021/12/27 04:54:09;;;;;;;;;;;10.60;99.90;;;;;;5017633;28;19979;-75
2021/12/27 04:56:35;;;;;;;;;;;10.60;99.90;;;;;;5017821;28;19941;-75
2021/12/27 04:59:00;;;;;;;;;;;10.70;99.90;;;;;;5017480;28;19937;-75
2021/12/27 05:01:26;;;;;;;;;;;10.70;99.90;;;;;;5019214;28;19914;-74
2021/12/27 05:03:52;;;;;;;;;;;10.70;99.90;;;;;;5021065;28;19909;-75
2021/12/27 05:06:17;;;;;;;;;;;10.70;99.90;;;;;;5017860;28;19910;-74
2021/12/27 05:08:43;;;;;;;;;;;10.70;99.90;;;;;;5017174;28;20000;-75
2021/12/27 05:11:09;;;;;;;;;;;10.70;99.90;;;;;;5028197;28;20012;-75
2021/12/27 05:13:35;;;;;;;;;;;10.70;99.90;;;;;;5004815;28;20311;-75
2021/12/27 05:16:01;;;;;;;;;;;10.70;99.90;;;;;;5015993;28;19975;-75
2021/12/27 05:18:27;;;;;;;;;;;10.70;99.90;;;;;;5030585;28;19913;-74
2021/12/27 05:20:52;;;;;;;;;;;10.70;99.90;;;;;;5017216;28;20538;-75
2021/12/27 05:23:18;;;;;;;;;;;10.70;99.90;;;;;;5014632;28;19929;-74
2021/12/27 05:25:44;;;;;;;;;;;10.70;99.90;;;;;;5017370;28;19913;-74
2021/12/27 05:28:09;;;;;;;;;;;10.70;99.90;;;;;;5016512;28;19921;-74
2021/12/27 05:30:35;;;;;;;;;;;10.70;99.90;;;;;;5016956;28;19910;-75
2021/12/27 05:33:01;;;;;;;;;;;10.70;99.90;;;;;;5021710;28;20414;-75
2021/12/27 05:35:27;;;;;;;;;;;10.70;99.90;;;;;;5016541;28;19921;-74
2021/12/27 05:37:53;;;;;;;;;;;10.70;99.90;;;;;;5017050;28;19967;-74
2021/12/27 05:40:20;;;;;;;;;;;10.80;99.90;;;;;;5017039;28;19917;-74
2021/12/27 05:42:46;;;;;;;;;;;10.80;99.90;;;;;;5015873;28;19925;-74
2021/12/27 05:45:11;;;;;;;;;;;10.80;99.90;;;;;;5016418;28;20005;-74
2021/12/27 05:47:37;;;;;;;;;;;10.80;99.90;;;;;;5007893;28;19957;-74
2021/12/27 05:50:04;;;;;;;;;;;10.80;99.90;;;;;;5013695;28;20032;-74
2021/12/27 05:52:30;;;;;;;;;;;10.80;99.90;;;;;;5016754;28;19917;-75
2021/12/27 05:54:55;;;;;;;;;;;10.80;99.90;;;;;;5017284;28;19918;-74
2021/12/27 05:57:21;;;;;;;;;;;10.80;99.90;;;;;;5016249;28;19914;-74
2021/12/27 05:59:47;;;;;;;;;;;10.80;99.90;;;;;;5022285;28;19909;-74
2021/12/27 06:02:13;;;;;;;;;;;10.80;99.90;;;;;;5017199;28;20351;-74
2021/12/27 06:04:38;;;;;;;;;;;10.90;99.90;;;;;;5016983;28;19913;-75
2021/12/27 06:07:04;;;;;;;;;;;10.90;99.90;;;;;;5016348;28;19920;-74
2021/12/27 06:09:29;;;;;;;;;;;10.90;99.90;;;;;;5016905;28;20000;-74
2021/12/27 06:11:55;;;;;;;;;;;11.00;99.90;;;;;;5015401;28;19909;-74
2021/12/27 06:14:21;;;;;;;;;;;11.00;99.90;;;;;;5014698;28;19971;-74
2021/12/27 06:16:46;;;;;;;;;;;11.00;99.90;;;;;;5030147;28;19916;-74
2021/12/27 06:19:12;;;;;;;;;;;11.10;99.90;;;;;;5021521;28;20032;-74
2021/12/27 06:21:38;;;;;;;;;;;11.10;99.90;;;;;;5020413;28;19921;-74
2021/12/27 06:24:04;;;;;;;;;;;11.20;99.90;;;;;;5020172;28;19921;-74
2021/12/27 06:26:29;;;;;;;;;;;11.20;99.90;;;;;;5020447;28;20335;-74
2021/12/27 06:28:55;;;;;;;;;;;11.20;99.90;;;;;;5019317;28;19917;-74
2021/12/27 06:31:22;;;;;;;;;;;11.20;99.90;;;;;;5020082;28;20304;-73
2021/12/27 06:33:48;;;;;;;;;;;11.20;99.90;;;;;;5023973;28;19910;-75
2021/12/27 06:36:14;;;;;;;;;;;11.20;99.90;;;;;;5017086;28;19914;-76
2021/12/27 06:38:40;;;;;;;;;;;11.20;99.90;;;;;;5018672;28;19939;-75
2021/12/27 06:41:05;;;;;;;;;;;11.20;99.90;;;;;;5020153;28;19980;-73
2021/12/27 06:43:31;;;;;;;;;;;11.20;99.90;;;;;;5019327;28;19921;-73
2021/12/27 06:46:00;;;;;;;;;;;11.20;99.90;;;;;;5022596;28;19916;-77
2021/12/27 06:48:26;;;;;;;;;;;11.20;99.90;;;;;;5025021;28;19909;-77
2021/12/27 06:50:51;;;;;;;;;;;11.20;99.90;;;;;;5019305;28;19920;-72
2021/12/27 06:53:17;;;;;;;;;;;11.20;99.90;;;;;;5019146;28;19913;-72
2021/12/27 06:55:43;;;;;;;;;;;11.20;99.90;;;;;;5019400;28;19917;-73
2021/12/27 06:58:09;;;;;;;;;;;11.10;99.90;;;;;;5019644;28;19937;-73
2021/12/27 07:00:35;;;;;;;;;;;11.10;99.90;;;;;;5027010;28;19913;-73
2021/12/27 07:03:00;;;;;;;;;;;11.10;99.90;;;;;;5019545;28;19944;-73
2021/12/27 07:05:26;;;;;;;;;;;11.10;99.90;;;;;;5019652;28;20406;-73
2021/12/27 07:07:52;;;;;;;;;;;11.10;99.90;;;;;;5019303;28;19948;-73
2021/12/27 07:10:19;;;;;;;;;;;11.10;99.90;;;;;;5019100;28;20270;-73
2021/12/27 07:12:45;;;;;;;;;;;11.10;99.90;;;;;;5019295;28;19924;-73
2021/12/27 07:15:11;;;;;;;;;;;11.00;99.90;;;;;;5016094;28;19913;-73
2021/12/27 07:17:37;;;;;;;;;;;11.10;99.90;;;;;;5018944;28;19920;-73
2021/12/27 07:20:04;;;;;;;;;;;11.10;99.90;;;;;;5019400;28;19917;-73
2021/12/27 07:22:30;;;;;;;;;;;11.10;99.90;;;;;;5018029;28;19917;-73
2021/12/27 07:24:55;;;;;;;;;;;11.10;99.90;;;;;;5027418;28;19917;-73
2021/12/27 07:27:21;;;;;;;;;;;11.10;99.90;;;;;;5017984;28;19955;-73
2021/12/27 07:29:47;;;;;;;;;;;11.20;99.90;;;;;;5018454;28;19921;-73
2021/12/27 07:32:12;;;;;;;;;;;11.20;99.90;;;;;;5023531;28;19929;-73
2021/12/27 07:34:38;;;;;;;;;;;11.30;99.90;;;;;;5024306;28;19909;-73
2021/12/27 07:37:04;;;;;;;;;;;11.30;99.90;;;;;;5019098;28;19916;-73
2021/12/27 07:39:29;;;;;;;;;;;11.40;99.90;;;;;;5019013;28;19917;-73
2021/12/27 07:41:55;;;;;;;;;;;11.40;99.90;;;;;;5018486;28;19913;-73
2021/12/27 07:44:21;;;;;;;;;;;11.50;99.90;;;;;;5017395;28;20384;-74
2021/12/27 07:46:46;;;;;;;;;;;11.50;99.90;;;;;;5018893;28;19909;-73
2021/12/27 07:49:13;;;;;;;;;;;11.50;99.90;;;;;;5003828;28;20437;-73
2021/12/27 07:51:40;;;;;;;;;;;11.50;99.90;;;;;;5018853;28;19909;-73
2021/12/27 07:54:06;;;;;;;;;;;11.50;99.90;;;;;;5017568;28;19933;-73
2021/12/27 07:56:32;;;;;;;;;;;11.50;99.90;;;;;;5017376;28;20471;-73
2021/12/27 07:59:03;;;;;;;;;;;11.50;99.90;;;;;;5018016;28;19932;-74
2021/12/27 08:01:33;;;;;;;;;;;11.60;99.90;;;;;;5027443;28;19922;-73
2021/12/27 08:03:59;;;;;;;;;;;11.60;99.90;;;;;;5017097;28;20365;-73
2021/12/27 08:06:24;;;;;;;;;;;11.60;99.90;;;;;;5018092;28;19909;-74
2021/12/27 08:08:50;;;;;;;;;;;11.60;99.90;;;;;;5026957;28;19996;-74
2021/12/27 08:11:16;;;;;;;;;;;11.70;99.90;;;;;;5018036;28;19922;-75
2021/12/27 08:13:42;;;;;;;;;;;11.70;99.90;;;;;;5016451;28;19917;-74
2021/12/27 08:16:08;;;;;;;;;;;11.70;99.90;;;;;;5017640;28;19914;-73
2021/12/27 08:18:34;;;;;;;;;;;11.60;99.90;;;;;;5020583;28;20315;-74
2021/12/27 08:21:00;;;;;;;;;;;11.60;99.90;;;;;;5008065;28;19917;-74
2021/12/27 08:23:25;;;;;;;;;;;11.50;99.90;;;;;;5018120;28;19968;-72
2021/12/27 08:25:51;;;;;;;;;;;11.50;99.90;;;;;;5025112;28;19913;-83
2021/12/27 08:28:17;;;;;;;;;;;11.50;99.90;;;;;;5017543;28;19917;-76
2021/12/27 08:30:42;;;;;;;;;;;11.50;99.90;;;;;;5027166;28;19948;-73
2021/12/27 08:33:08;;;;;;;;;;;11.40;99.90;;;;;;5026220;28;19919;-76
2021/12/27 08:35:36;;;;;;;;;;;11.40;99.90;;;;;;5018084;28;19932;-72
2021/12/27 08:38:02;;;;;;;;;;;11.40;99.90;;;;;;5028088;28;19916;-74
2021/12/27 08:40:28;;;;;;;;;;;11.40;99.90;;;;;;5016603;28;19913;-77
2021/12/27 08:42:54;;;;;;;;;;;11.40;99.90;;;;;;5015558;28;19976;-75
2021/12/27 08:45:20;;;;;;;;;;;11.30;99.90;;;;;;5016999;28;19914;-72
2021/12/27 08:47:46;;;;;;;;;;;11.30;99.90;;;;;;5013421;28;20031;-77
2021/12/27 08:50:12;;;;;;;;;;;11.40;99.90;;;;;;5013676;28;19914;-79
2021/12/27 08:52:38;;;;;;;;;;;11.50;99.90;;;;;;5016595;28;20444;-79
2021/12/27 08:55:04;;;;;;;;;;;11.50;99.90;;;;;;5024889;28;19909;-76
2021/12/27 08:57:31;;;;;;;;;;;11.60;99.90;;;;;;5021620;28;19945;-76
2021/12/27 08:59:56;;;;;;;;;;;11.70;99.90;;;;;;5022923;28;20392;-77
2021/12/27 09:02:22;;;;;;;;;;;11.80;99.90;;;;;;5022148;28;19925;-74
2021/12/27 09:04:48;;;;;;;;;;;12.00;99.90;;;;;;5018156;28;20315;-75
2021/12/27 09:07:15;;;;;;;;;;;12.10;99.90;;;;;;5023872;28;19917;-75
2021/12/27 09:09:42;;;;;;;;;;;12.20;99.90;;;;;;5017111;28;19922;-74
2021/12/27 09:12:08;;;;;;;;;;;12.30;99.90;;;;;;5016693;28;20261;-83
2021/12/27 09:14:34;;;;;;;;;;;12.40;99.90;;;;;;5013963;28;19968;-79
2021/12/27 09:16:59;;;;;;;;;;;12.50;99.90;;;;;;5015435;28;20361;-76
2021/12/27 09:19:25;;;;;;;;;;;12.60;99.90;;;;;;5016075;28;20003;-73
2021/12/27 09:21:52;;;;;;;;;;;12.70;99.90;;;;;;5017263;28;20004;-76
2021/12/27 09:24:18;;;;;;;;;;;12.80;99.90;;;;;;5015669;28;19932;-78
2021/12/27 09:26:44;;;;;;;;;;;12.90;99.80;;;;;;5016665;28;20540;-72
2021/12/27 09:29:10;;;;;;;;;;;13.10;99.50;;;;;;5018387;28;20015;-74
2021/12/27 09:31:36;;;;;;;;;;;13.20;99.20;;;;;;5026470;28;19932;-77
2021/12/27 09:34:02;;;;;;;;;;;13.40;98.40;;;;;;5027840;28;19913;-74
2021/12/27 09:36:28;;;;;;;;;;;13.40;98.50;;;;;;5017011;28;19909;-73
2021/12/27 09:38:53;;;;;;;;;;;13.40;98.20;;;;;;5022008;28;19920;-75
2021/12/27 09:41:19;;;;;;;;;;;13.40;97.50;;;;;;5018331;28;20426;-82
2021/12/27 09:43:46;;;;;;;;;;;13.40;97.50;;;;;;5019664;28;19915;-76
2021/12/27 09:46:13;;;;;;;;;;;13.40;97.10;;;;;;5009031;28;19913;-76
2021/12/27 09:48:39;;;;;;;;;;;13.40;96.60;;;;;;5017870;28;19909;-73
2021/12/27 09:51:05;;;;;;;;;;;13.30;96.30;;;;;;5017541;28;19964;-74
2021/12/27 09:53:31;;;;;;;;;;;13.30;95.90;;;;;;5020235;28;19913;-73
2021/12/27 09:55:57;;;;;;;;;;;13.30;95.80;;;;;;5020763;28;19921;-72
2021/12/27 09:58:23;;;;;;;;;;;13.20;96.00;;;;;;5020106;28;19944;-71
2021/12/27 10:00:49;;;;;;;;;;;13.30;95.90;;;;;;5021182;28;20284;-71
2021/12/27 10:03:14;;;;;;;;;;;13.20;96.00;;;;;;5020525;28;19920;-72
2021/12/27 10:05:40;;;;;;;;;;;13.20;95.80;;;;;;5020770;28;19941;-72
2021/12/27 10:08:06;;;;;;;;;;;13.20;96.00;;;;;;5029384;28;19960;-71
2021/12/27 10:10:32;;;;;;;;;;;13.20;95.90;;;;;;5040204;28;19913;-71
2021/12/27 10:12:58;;;;;;;;;;;13.20;95.60;;;;;;5025472;28;19916;-72
2021/12/27 10:15:33;;;;;;;;;;;13.20;95.10;;;;;;5033729;28;20064;-70
2021/12/27 10:18:06;;;;;;;;;;;13.20;95.00;;;;;;5020047;28;20008;-71
2021/12/27 10:20:32;;;;;;;;;;;13.20;95.20;;;;;;5020323;28;20289;-71
2021/12/27 10:22:57;;;;;;;;;;;13.20;94.90;;;;;;5027761;28;20409;-73
2021/12/27 10:25:24;;;;;;;;;;;13.20;94.80;;;;;;5021623;28;19961;-73
2021/12/27 10:27:53;;;;;;;;;;;13.30;95.30;;;;;;5020110;28;19909;-73
2021/12/27 10:30:23;;;;;;;;;;;13.40;95.80;;;;;;5014295;28;19933;-73
2021/12/27 10:33:06;;;;;;;;;;;13.80;95.30;;;;;;5030187;28;19917;-73
2021/12/27 10:35:34;;;;;;;;;;;13.90;94.90;;;;;;5020899;28;19948;-75
2021/12/27 10:38:17;;;;;;;;;;;14.00;94.70;;;;;;5030198;28;19916;-82
2021/12/27 10:40:58;;;;;;;;;;;14.00;92.70;;;;;;5016635;28;19914;-71
2021/12/27 10:43:43;;;;;;;;;;;14.00;92.40;;;;;;5019648;28;19918;-72
2021/12/27 10:46:17;;;;;;;;;;;13.90;92.80;;;;;;5020100;28;19910;-73
2021/12/27 10:48:45;;;;;;;;;;;13.80;92.70;;;;;;5020584;28;19910;-71
2021/12/27 10:51:12;;;;;;;;;;;13.70;93.20;;;;;;5016262;28;20456;-71
2021/12/27 10:53:42;;;;;;;;;;;13.60;92.90;;;;;;5029676;28;19916;-73
2021/12/27 10:56:07;;;;;;;;;;;13.50;92.80;;;;;;5018153;28;19910;-72
2021/12/27 10:58:38;;;;;;;;;;;13.50;92.80;;;;;;5019272;28;20369;-71
2021/12/27 11:01:05;;;;;;;;;;;13.40;92.70;;;;;;5027469;28;19921;-72
2021/12/27 11:03:36;;;;;;;;;;;13.40;92.90;;;;;;5015854;28;19920;-71
2021/12/27 11:06:03;;;;;;;;;;;13.30;93.10;;;;;;5018379;28;20450;-72
2021/12/27 11:08:30;;;;;;;;;;;13.30;93.30;;;;;;5021035;28;19910;-72
2021/12/27 11:10:55;;;;;;;;;;;13.30;93.50;;;;;;5010489;28;19960;-72
2021/12/27 11:13:22;;;;;;;;;;;13.40;93.50;;;;;;5015813;28;19917;-72
2021/12/27 11:15:47;;;;;;;;;;;13.60;93.70;;;;;;5021252;28;19975;-72
2021/12/27 11:18:15;;;;;;;;;;;13.90;94.20;;;;;;5018052;28;19913;-72
2021/12/27 11:20:45;;;;;;;;;;;14.50;92.50;;;;;;5018816;28;20004;-71
2021/12/27 11:23:12;;;;;;;;;;;14.80;92.40;;;;;;5016635;28;19922;-72
2021/12/27 11:25:39;;;;;;;;;;;15.10;91.00;;;;;;5029644;28;19992;-71
2021/12/27 11:28:05;;;;;;;;;;;15.30;90.70;;;;;;5018559;28;19913;-71
2021/12/27 11:30:32;;;;;;;;;;;15.30;90.20;;;;;;5017223;28;19996;-71
2021/12/27 11:33:02;;;;;;;;;;;15.30;89.40;;;;;;5014007;28;19922;-72
2021/12/27 11:35:32;;;;;;;;;;;15.20;89.90;;;;;;5014995;28;20377;-72
2021/12/27 11:38:01;;;;;;;;;;;15.00;90.20;;;;;;5012794;28;19914;-72
2021/12/27 11:40:37;;;;;;;;;;;15.00;90.50;;;;;;5016056;28;20384;-72
2021/12/27 11:43:04;;;;;;;;;;;15.20;90.90;;;;;;5010173;28;20430;-72
2021/12/27 11:45:36;;;;;;;;;;;15.50;90.50;;;;;;5015514;28;19964;-72
2021/12/27 11:48:14;;;;;;;;;;;15.80;90.60;;;;;;5018018;28;19945;-72
2021/12/27 11:50:58;;;;;;;;;;;16.20;90.30;;;;;;5017088;28;19936;-72
2021/12/27 11:53:27;;;;;;;;;;;16.50;88.00;;;;;;5020799;28;19917;-72
2021/12/27 11:55:53;;;;;;;;;;;16.60;87.10;;;;;;5017755;28;19910;-74
2021/12/27 11:58:35;;;;;;;;;;;16.50;84.80;;;;;;5018272;28;19963;-71
2021/12/27 12:01:19;;;;;;;;;;;16.30;85.80;;;;;;5019406;28;19922;-75
2021/12/27 12:03:45;;;;;;;;;;;16.10;83.80;;;;;;5028197;28;19914;-72
2021/12/27 12:06:30;;;;;;;;;;;15.90;84.60;;;;;;5017894;28;19914;-72
2021/12/27 12:08:56;;;;;;;;;;;15.70;83.20;;;;;;5018355;28;19909;-73
2021/12/27 12:11:29;;;;;;;;;;;15.50;83.70;;;;;;5020127;28;20013;-73
2021/12/27 12:13:55;;;;;;;;;;;15.50;84.70;;;;;;5012753;28;19920;-71
2021/12/27 12:16:23;;;;;;;;;;;15.40;85.00;;;;;;5020184;28;20351;-72
2021/12/27 12:18:51;;;;;;;;;;;15.30;85.40;;;;;;5018157;28;19914;-71
2021/12/27 12:21:32;;;;;;;;;;;15.30;85.00;;;;;;5017609;28;20250;-72
2021/12/27 12:23:59;;;;;;;;;;;15.30;84.00;;;;;;5015617;28;19921;-74
2021/12/27 12:26:25;;;;;;;;;;;15.20;86.50;;;;;;5017547;28;19976;-73
2021/12/27 12:29:03;;;;;;;;;;;15.20;87.30;;;;;;5017565;28;20364;-73
2021/12/27 12:31:33;;;;;;;;;;;15.10;88.10;;;;;;5020289;28;19931;-72
2021/12/27 12:34:11;;;;;;;;;;;15.10;88.90;;;;;;5023798;28;19932;-76
2021/12/27 12:36:51;;;;;;;;;;;15.20;89.70;;;;;;5022492;28;19960;-76
2021/12/27 12:39:17;;;;;;;;;;;15.30;90.00;;;;;;5016799;28;19910;-74
2021/12/27 12:41:43;;;;;;;;;;;15.50;87.10;;;;;;5021478;28;19966;-76
2021/12/27 12:44:11;;;;;;;;;;;15.60;87.80;;;;;;5015936;28;20226;-71
2021/12/27 12:46:40;;;;;;;;;;;15.70;88.20;;;;;;5019706;28;19979;-71
2021/12/27 12:49:07;;;;;;;;;;;15.80;87.40;;;;;;5016476;28;19916;-72
2021/12/27 12:51:33;;;;;;;;;;;15.90;87.70;;;;;;5024451;28;19932;-74
2021/12/27 12:53:58;;;;;;;;;;;15.80;88.10;;;;;;5021409;28;20316;-74
2021/12/27 12:56:28;;;;;;;;;;;15.80;87.70;;;;;;5027086;28;19910;-74
2021/12/27 12:58:54;;;;;;;;;;;15.70;87.70;;;;;;5019926;28;19960;-74
2021/12/27 13:01:19;;;;;;;;;;;15.50;86.90;;;;;;5028756;28;20437;-73
2021/12/27 13:03:45;;;;;;;;;;;15.30;87.40;;;;;;5022866;28;19933;-73
2021/12/27 13:06:10;;;;;;;;;;;15.20;88.20;;;;;;5014840;28;19917;-73
2021/12/27 13:08:36;;;;;;;;;;;15.00;87.70;;;;;;5016811;28;19964;-73
2021/12/27 13:11:02;;;;;;;;;;;14.90;88.10;;;;;;5017121;28;19910;-73
2021/12/27 13:13:29;;;;;;;;;;;14.80;89.00;;;;;;5013236;28;20353;-73
2021/12/27 13:15:56;;;;;;;;;;;14.70;90.00;;;;;;5015454;28;20011;-74
2021/12/27 13:18:30;;;;;;;;;;;14.60;90.00;;;;;;5017458;28;19940;-74
2021/12/27 13:20:56;;;;;;;;;;;14.50;90.00;;;;;;5017558;28;19977;-73
2021/12/27 13:23:24;;;;;;;;;;;14.50;90.30;;;;;;5017398;28;19968;-73
2021/12/27 13:25:49;;;;;;;;;;;14.40;90.40;;;;;;5018930;28;19913;-74
2021/12/27 13:28:21;;;;;;;;;;;14.30;90.40;;;;;;5021233;28;19920;-73
2021/12/27 13:30:52;;;;;;;;;;;14.20;90.60;;;;;;5021709;28;19920;-73
2021/12/27 13:33:19;;;;;;;;;;;14.10;90.80;;;;;;5030829;28;19967;-73
2021/12/27 13:35:45;;;;;;;;;;;14.10;91.10;;;;;;5021402;28;20380;-73
2021/12/27 13:38:14;;;;;;;;;;;14.10;91.20;;;;;;5021378;28;19909;-73
2021/12/27 13:40:44;;;;;;;;;;;14.00;91.00;;;;;;5021053;28;19909;-73
2021/12/27 13:43:10;;;;;;;;;;;14.00;91.10;;;;;;5007269;28;19910;-73
2021/12/27 13:45:41;;;;;;;;;;;14.00;91.40;;;;;;5020698;28;20331;-74
2021/12/27 13:48:07;;;;;;;;;;;14.00;91.80;;;;;;5021139;28;19992;-73
2021/12/27 13:50:35;;;;;;;;;;;14.00;92.00;;;;;;5021197;28;19959;-74
2021/12/27 13:53:08;;;;;;;;;;;14.00;92.20;;;;;;5021135;28;19963;-73
2021/12/27 13:55:34;;;;;;;;;;;14.00;92.40;;;;;;5021154;28;19909;-73
2021/12/27 13:58:18;;;;;;;;;;;14.00;92.60;;;;;;5020546;28;19916;-73
2021/12/27 14:00:45;;;;;;;;;;;14.00;92.80;;;;;;5023022;28;20840;-73
2021/12/27 14:03:29;;;;;;;;;;;13.90;93.00;;;;;;5021043;28;19977;-73
2021/12/27 14:05:55;;;;;;;;;;;13.80;93.40;;;;;;5020934;28;19910;-73
2021/12/27 14:08:21;;;;;;;;;;;13.80;93.30;;;;;;5021120;28;19909;-73
2021/12/27 14:11:01;;;;;;;;;;;13.70;93.50;;;;;;5020778;28;20020;-72
2021/12/27 14:13:45;;;;;;;;;;;13.60;93.70;;;;;;5016966;28;19910;-73
2021/12/27 14:16:24;;;;;;;;;;;13.60;94.10;;;;;;5019362;28;20392;-72
2021/12/27 14:19:11;;;;;;;;;;;13.50;94.20;;;;;;5020590;28;20717;-73